KBTMKDLN

Guest
Details From KBTM - Bert Mooney
To KDLN - Dillon
Flight Number -
Tags Generated
Created
Modified
Stats Distance 43 nm / 79 km
Max Altitude 0 ft / 0 m
Waypoints 2
Social Downloads 1
Likes 0
Share VATSIM

Download

Looking for another format? Having issues loading an existing format? Contact us
Advertisement - Login to hide

Notes

Generated

Route

KBTM KDLN

ID Type Via Altitude Latitude Longitude Leg Dist Tot Dist Heading (true) Name
O KBTM APT - 0 ft / 0 m 45.95899˚ -112.50574˚ - 0 nm - -
O KDLN APT - 0 ft / 0 m 45.24883˚ -112.55844˚ 42 nm 42 nm 183° / 183° -

Altitude Profile

Advertisement - Login to hide

KBTM

Details ICAO KBTM (BTM)
Name Bert Mooney
Region United States
Timezone America/Denver (UTC-7.0)
Stats Elevation 5,550 ft / 1,692 m (AMSL)
Location 45.953450° -112.496706°
Runways 3
Magnetic Variation 12.505° E

METAR

KBTM 160901Z AUTO 32004KT 9SM BKN028 OVC038 M03/M05 A2987 RMK AO2 T10331050

Decode

TAF

KBTM 160655Z 1607/1706 33005KT 2SM -SN BR SCT008 OVC020 FM160730 31005KT 1SM -SN BR BKN006 OVC015 FM161000 32005KT 1 1/2SM -SN BR SCT006 OVC025 FM161600 32005KT 4SM -SN BR OVC030 FM161800 30005KT P6SM VCSH OVC050

Decode

Departure Runways

ID Width Length Bearing (true) Bearing (mag) Surface Threshold Offset Overrun Length
02 75 ft / 23 m 5,542 ft / 1,689 m 37.91° 25.41° Asphalt 0 ft / 0 m 0 ft / 0 m
11 75 ft / 23 m 5,093 ft / 1,552 m 129.21° 116.71° Asphalt 0 ft / 0 m 0 ft / 0 m
15 150 ft / 46 m 9,003 ft / 2,744 m 166.91° 154.41° Asphalt 0 ft / 0 m 110 ft / 34 m
20 75 ft / 23 m 5,542 ft / 1,689 m 217.92° 205.42° Asphalt 0 ft / 0 m 0 ft / 0 m
29 75 ft / 23 m 5,093 ft / 1,552 m 309.22° 296.72° Asphalt 0 ft / 0 m 0 ft / 0 m
33 150 ft / 46 m 9,003 ft / 2,744 m 346.92° 334.42° Asphalt 0 ft / 0 m 110 ft / 34 m

KDLN

Details ICAO KDLN
Name Dillon
Region United States
Timezone America/Denver (UTC-7.0)
Stats Elevation 5,241 ft / 1,597 m (AMSL)
Location 45.254607° -112.552629°
Runways 2
Magnetic Variation 12.407° E

METAR

KDLN 160909Z AUTO 00000KT 5SM -SN BKN020 OVC035 M02/M05 A2985 RMK AO2 P0000 T10221050

Decode

TAF

Not found

Destination Runways

ID Width Length Bearing (true) Bearing (mag) Surface Threshold Offset Overrun Length
03 60 ft / 18 m 3,593 ft / 1,095 m 50.03° 37.62° Asphalt 0 ft / 0 m 0 ft / 0 m
16 75 ft / 23 m 6,504 ft / 1,983 m 178.60° 166.19° Asphalt 0 ft / 0 m 0 ft / 0 m
21 60 ft / 18 m 3,593 ft / 1,095 m 230.04° 217.63° Asphalt 0 ft / 0 m 0 ft / 0 m
34 75 ft / 23 m 6,504 ft / 1,983 m 358.60° 346.19° Asphalt 0 ft / 0 m 0 ft / 0 m